createdAt,value
2019-05-17T00:01:07.463Z,95564.20
2019-05-17T00:03:47.894Z,95561.27
2019-05-17T00:06:19.071Z,95562.84
2019-05-17T00:08:56.521Z,95557.28
2019-05-17T00:11:30.085Z,95549.27
2019-05-17T00:14:00.547Z,95547.91
2019-05-17T00:16:37.343Z,95542.03
2019-05-17T00:19:09.072Z,95546.81
2019-05-17T00:21:39.520Z,95535.63
2019-05-17T00:24:19.090Z,95537.20
2019-05-17T00:27:00.848Z,95535.88
2019-05-17T00:29:32.559Z,95531.36
2019-05-17T00:32:06.449Z,95532.41
2019-05-17T00:34:37.727Z,95531.56
2019-05-17T00:37:17.376Z,95525.13
2019-05-17T00:39:48.651Z,95518.49
2019-05-17T00:42:19.125Z,95518.25
2019-05-17T00:44:50.126Z,95518.77
2019-05-17T00:47:21.047Z,95512.42
2019-05-17T00:50:07.323Z,95501.55
2019-05-17T00:52:37.381Z,95503.68
2019-05-17T00:55:10.861Z,95498.37
2019-05-17T00:57:41.311Z,95502.63
2019-05-17T01:00:11.806Z,95499.94
2019-05-17T01:02:42.578Z,95494.91
2019-05-17T01:05:13.001Z,95491.17
2019-05-17T01:07:43.462Z,95491.72
2019-05-17T01:10:13.943Z,95497.28
2019-05-17T01:12:44.429Z,95483.76
2019-05-17T01:15:22.756Z,95487.53
2019-05-17T01:17:53.208Z,95484.07
2019-05-17T01:20:23.822Z,95487.81
2019-05-17T01:22:56.695Z,95485.68
2019-05-17T01:25:27.262Z,95482.50
2019-05-17T01:27:58.015Z,95482.22
2019-05-17T01:30:41.942Z,95485.16
2019-05-17T01:33:12.401Z,95485.95
2019-05-17T01:35:46.495Z,95485.71
2019-05-17T01:38:17.725Z,95475.33
2019-05-17T01:40:48.275Z,95479.59
2019-05-17T01:43:24.455Z,95481.98
2019-05-17T01:45:57.272Z,95479.08
2019-05-17T01:48:27.228Z,95475.13
2019-05-17T01:50:57.708Z,95469.81
2019-05-17T01:53:28.162Z,95472.47
2019-05-17T01:55:58.559Z,95469.00
2019-05-17T01:58:42.073Z,95468.23
2019-05-17T02:01:12.635Z,95468.52
2019-05-17T02:03:43.149Z,95468.52
2019-05-17T02:06:16.550Z,95466.66
2019-05-17T02:08:47.637Z,95461.88
2019-05-17T02:11:38.789Z,95458.69
2019-05-17T02:14:09.635Z,95450.47
2019-05-17T02:16:40.098Z,95456.03
2019-05-17T02:19:10.714Z,95450.47
2019-05-17T02:21:41.136Z,95452.05
2019-05-17T02:24:11.556Z,95448.06
2019-05-17T02:26:46.432Z,95446.20
2019-05-17T02:29:17.249Z,95449.14
2019-05-17T02:31:47.682Z,95443.58
2019-05-17T02:34:18.066Z,95439.07
2019-05-17T02:36:48.514Z,95439.34
2019-05-17T02:39:24.973Z,95440.68
2019-05-17T02:41:55.597Z,95439.34
2019-05-17T02:44:26.004Z,95439.62
2019-05-17T02:46:56.461Z,95442.03
2019-05-17T02:49:27.109Z,95442.03
2019-05-17T02:51:57.538Z,95434.59
2019-05-17T02:54:28.008Z,95434.92
2019-05-17T02:56:58.445Z,95431.47
2019-05-17T02:59:28.888Z,95425.91
2019-05-17T03:01:59.307Z,95430.69
2019-05-17T03:04:32.520Z,95420.58
2019-05-17T03:07:03.946Z,95418.17
2019-05-17T03:09:34.606Z,95422.16
2019-05-17T03:12:05.050Z,95422.16
2019-05-17T03:14:35.427Z,95415.80
2019-05-17T03:17:05.907Z,95421.64
2019-05-17T03:19:36.315Z,95424.05
2019-05-17T03:22:13.139Z,95421.39
2019-05-17T03:24:43.990Z,95428.84
2019-05-17T03:27:23.291Z,95428.84
2019-05-17T03:29:54.033Z,95431.49
2019-05-17T03:32:26.541Z,95433.34
2019-05-17T03:35:06.057Z,95441.07
2019-05-17T03:37:37.482Z,95440.27
2019-05-17T03:40:21.659Z,95435.23
2019-05-17T03:42:36.853Z,95442.43
2019-05-17T03:45:07.364Z,95436.59
2019-05-17T03:47:37.757Z,95448.30
2019-05-17T03:50:13.778Z,95446.97
2019-05-17T03:52:46.270Z,95450.44
2019-05-17T03:55:17.632Z,95450.95
2019-05-17T03:57:48.173Z,95448.30
2019-05-17T04:00:22.970Z,95449.11
2019-05-17T04:02:53.920Z,95449.38
2019-05-17T04:05:24.761Z,95449.10
2019-05-17T04:07:55.184Z,95447.25
2019-05-17T04:10:25.827Z,95440.60
2019-05-17T04:12:56.766Z,95439.30
2019-05-17T04:15:27.944Z,95439.85
2019-05-17T04:17:59.697Z,95446.78
2019-05-17T04:20:32.890Z,95450.23
2019-05-17T04:23:03.859Z,95450.23
2019-05-17T04:25:38.255Z,95452.90
2019-05-17T04:28:06.543Z,95452.13
2019-05-17T04:31:02.822Z,95453.45
2019-05-17T04:33:34.238Z,95455.61
2019-05-17T04:36:04.733Z,95456.97
2019-05-17T04:38:35.125Z,95454.30
2019-05-17T04:41:05.590Z,95456.71
2019-05-17T04:43:36.357Z,95454.91
2019-05-17T04:46:06.802Z,95452.25
2019-05-17T04:48:37.186Z,95459.75
2019-05-17T04:51:07.905Z,95456.59
2019-05-17T04:53:38.299Z,95458.73
2019-05-17T04:56:22.700Z,95455.05
2019-05-17T04:58:54.376Z,95451.36
2019-05-17T05:01:25.003Z,95449.27
2019-05-17T05:03:55.538Z,95454.05
2019-05-17T05:06:27.369Z,95446.89
2019-05-17T05:08:57.869Z,95445.84
2019-05-17T05:11:50.415Z,95447.72
2019-05-17T05:14:08.272Z,95451.98
2019-05-17T05:16:38.740Z,95449.87
2019-05-17T05:19:09.219Z,95453.35
2019-05-17T05:21:42.450Z,95444.55
2019-05-17T05:24:13.271Z,95442.19
2019-05-17T05:26:43.867Z,95440.09
2019-05-17T05:29:14.346Z,95433.17
2019-05-17T05:31:44.797Z,95441.73
2019-05-17T05:34:15.227Z,95431.89
2019-05-17T05:36:45.696Z,95434.06
2019-05-17T05:39:16.879Z,95438.86
2019-05-17T05:41:47.333Z,95433.31
2019-05-17T05:44:17.878Z,95437.88
2019-05-17T05:46:48.330Z,95432.03
2019-05-17T05:49:21.320Z,95430.45
2019-05-17T05:51:55.148Z,95438.18
2019-05-17T05:54:25.608Z,95438.98
2019-05-17T05:56:56.296Z,95435.58
2019-05-17T05:59:27.251Z,95433.73
2019-05-17T06:01:58.104Z,95436.64
2019-05-17T06:04:29.081Z,95441.20
2019-05-17T06:07:04.515Z,95438.80
2019-05-17T06:09:34.977Z,95439.88
2019-05-17T06:12:05.753Z,95442.80
2019-05-17T06:14:36.645Z,95438.78
2019-05-17T06:17:08.190Z,95436.41
2019-05-17T06:19:38.959Z,95432.13
2019-05-17T06:22:09.994Z,95431.05
2019-05-17T06:24:42.482Z,95429.21
2019-05-17T06:27:13.044Z,95430.52
2019-05-17T06:29:43.749Z,95432.09
2019-05-17T06:32:14.532Z,95432.62
2019-05-17T06:34:44.986Z,95433.70
2019-05-17T06:37:16.708Z,95435.27
2019-05-17T06:39:47.359Z,95429.34
2019-05-17T06:42:18.130Z,95427.18
2019-05-17T06:44:52.342Z,95427.14
2019-05-17T06:47:27.028Z,95428.13
2019-05-17T06:49:57.435Z,95420.55
2019-05-17T06:52:27.856Z,95423.46
2019-05-17T06:54:58.532Z,95425.02
2019-05-17T06:57:32.555Z,95420.95
2019-05-17T07:00:06.430Z,95418.14
2019-05-17T07:02:36.257Z,95410.11
2019-05-17T07:05:10.127Z,95418.39
2019-05-17T07:07:43.197Z,95421.91
2019-05-17T07:10:13.941Z,95419.28
2019-05-17T07:12:55.199Z,95430.23
2019-05-17T07:15:20.993Z,95433.24
2019-05-17T07:17:56.746Z,95427.84
2019-05-17T07:20:27.223Z,95431.03
2019-05-17T07:23:00.376Z,95435.98
2019-05-17T07:25:30.459Z,95429.64
2019-05-17T07:28:02.106Z,95426.03
2019-05-17T07:30:54.288Z,95415.66
2019-05-17T07:33:30.350Z,95420.55
2019-05-17T07:36:03.096Z,95404.83
2019-05-17T07:38:33.523Z,95409.02
2019-05-17T07:41:03.948Z,95407.49
2019-05-17T07:43:35.478Z,95413.80
2019-05-17T07:46:09.476Z,95417.20
2019-05-17T07:48:40.501Z,95417.84
2019-05-17T07:51:14.877Z,95420.33
2019-05-17T07:53:45.555Z,95424.61
2019-05-17T07:56:20.471Z,95422.23
2019-05-17T07:58:51.096Z,95413.20
2019-05-17T08:01:21.595Z,95418.91
2019-05-17T08:03:52.145Z,95426.48
2019-05-17T08:06:23.098Z,95431.91
2019-05-17T08:09:01.156Z,95429.78
2019-05-17T08:11:33.573Z,95426.63
2019-05-17T08:14:04.354Z,95425.34
2019-05-17T08:16:39.459Z,95417.34
2019-05-17T08:19:10.070Z,95414.59
2019-05-17T08:21:41.622Z,95407.58
2019-05-17T08:24:12.025Z,95408.34
2019-05-17T08:26:42.776Z,95406.68
2019-05-17T08:29:13.163Z,95408.80
2019-05-17T08:31:43.595Z,95413.09
2019-05-17T08:34:17.243Z,95408.28
2019-05-17T08:36:49.890Z,95414.78
2019-05-17T08:39:21.967Z,95413.23
2019-05-17T08:41:52.689Z,95409.70
2019-05-17T08:44:23.110Z,95411.55
2019-05-17T08:46:59.390Z,95407.20
2019-05-17T08:49:31.135Z,95410.07
2019-05-17T08:52:04.751Z,95397.73
2019-05-17T08:54:42.665Z,95402.91
2019-05-17T08:57:13.620Z,95402.47
2019-05-17T08:59:44.274Z,95394.67
2019-05-17T09:02:14.771Z,95397.61
2019-05-17T09:04:46.284Z,95394.20
2019-05-17T09:07:26.783Z,95396.98
2019-05-17T09:09:57.236Z,95388.00
2019-05-17T09:12:30.038Z,95396.25
2019-05-17T09:15:00.739Z,95386.03
2019-05-17T09:17:33.400Z,95384.75
2019-05-17T09:20:04.177Z,95384.16
2019-05-17T09:23:00.084Z,95378.42
2019-05-17T09:25:55.512Z,95382.82
2019-05-17T09:28:31.830Z,95384.34
2019-05-17T09:31:02.762Z,95385.22
2019-05-17T09:34:14.836Z,95381.59
2019-05-17T09:36:50.049Z,95377.81
2019-05-17T09:39:23.608Z,95373.45
2019-05-17T09:41:54.298Z,95369.85
2019-05-17T09:44:24.810Z,95367.84
2019-05-17T09:47:05.849Z,95365.19
2019-05-17T09:49:36.473Z,95361.80
2019-05-17T09:52:09.464Z,95360.94
2019-05-17T09:54:45.414Z,95362.77
2019-05-17T09:57:14.945Z,95360.43
2019-05-17T09:59:45.352Z,95361.64
2019-05-17T10:02:20.914Z,95363.58
2019-05-17T10:04:59.789Z,95358.72
2019-05-17T10:07:30.546Z,95358.83
2019-05-17T10:10:16.042Z,95353.45
2019-05-17T10:12:51.270Z,95353.08
2019-05-17T10:15:40.904Z,95348.59
2019-05-17T10:18:11.369Z,95348.09
2019-05-17T10:20:42.055Z,95342.30
2019-05-17T10:23:12.505Z,95345.95
2019-05-17T10:25:43.037Z,95346.84
2019-05-17T10:28:29.721Z,95349.23
2019-05-17T10:31:02.281Z,95341.16
2019-05-17T10:33:32.804Z,95345.05
2019-05-17T10:36:03.181Z,95342.77
2019-05-17T10:38:33.797Z,95348.77
2019-05-17T10:41:07.298Z,95356.87
2019-05-17T10:43:45.310Z,95349.22
2019-05-17T10:46:17.182Z,95344.54
2019-05-17T10:48:50.174Z,95337.22
2019-05-17T10:51:21.179Z,95335.32
2019-05-17T10:53:51.662Z,95338.44
2019-05-17T10:56:25.305Z,95330.36
2019-05-17T10:59:05.516Z,95335.45
2019-05-17T11:01:36.300Z,95327.84
2019-05-17T11:04:07.099Z,95332.12
2019-05-17T11:06:40.713Z,95326.35
2019-05-17T11:09:20.209Z,95329.47
2019-05-17T11:11:52.480Z,95332.26
2019-05-17T11:14:23.157Z,95331.01
2019-05-17T11:16:57.080Z,95332.86
2019-05-17T11:19:29.043Z,95333.66
2019-05-17T11:21:59.947Z,95332.01
2019-05-17T11:24:31.572Z,95324.63
2019-05-17T11:27:15.934Z,95313.56
2019-05-17T11:29:52.458Z,95312.56
2019-05-17T11:32:27.450Z,95301.02
2019-05-17T11:35:26.620Z,95302.19
2019-05-17T11:37:58.656Z,95301.21
2019-05-17T11:40:43.638Z,95302.64
2019-05-17T11:43:28.322Z,95303.28
2019-05-17T11:45:57.674Z,95302.27
2019-05-17T11:48:28.344Z,95300.50
2019-05-17T11:51:00.829Z,95296.38
2019-05-17T11:53:41.174Z,95297.83
2019-05-17T11:56:11.773Z,95289.36
2019-05-17T11:58:42.246Z,95298.13
2019-05-17T12:01:14.636Z,95291.44
2019-05-17T12:03:45.086Z,95299.16
2019-05-17T12:06:15.838Z,95299.66
2019-05-17T12:08:51.338Z,95292.68
2019-05-17T12:11:21.768Z,95300.28
2019-05-17T12:13:55.772Z,95298.03
2019-05-17T12:16:31.910Z,95298.08
2019-05-17T12:19:02.338Z,95292.43
2019-05-17T12:21:37.205Z,95289.73
2019-05-17T12:24:09.221Z,95290.35
2019-05-17T12:26:55.807Z,95285.25
2019-05-17T12:29:26.246Z,95280.52
2019-05-17T12:32:06.554Z,95273.97
2019-05-17T12:34:39.584Z,95286.80
2019-05-17T12:37:12.975Z,95277.05
2019-05-17T12:39:44.995Z,95276.02
2019-05-17T12:42:15.466Z,95276.36
2019-05-17T12:44:52.104Z,95271.66
2019-05-17T12:47:22.662Z,95274.27
2019-05-17T12:49:57.499Z,95269.61
2019-05-17T12:52:27.920Z,95267.78
2019-05-17T12:54:58.421Z,95270.86
2019-05-17T12:57:28.810Z,95263.42
2019-05-17T13:00:02.519Z,95261.34
2019-05-17T13:02:42.205Z,95262.63
2019-05-17T13:05:13.237Z,95262.53
2019-05-17T13:07:43.900Z,95252.52
2019-05-17T13:10:14.372Z,95252.34
2019-05-17T13:12:46.233Z,95252.87
2019-05-17T13:15:18.586Z,95254.23
2019-05-17T13:18:00.088Z,95249.84
2019-05-17T13:20:32.270Z,95246.63
2019-05-17T13:23:04.138Z,95248.81
2019-05-17T13:25:41.803Z,95248.91
2019-05-17T13:28:12.554Z,95237.37
2019-05-17T13:30:45.726Z,95244.53
2019-05-17T13:33:18.361Z,95237.57
2019-05-17T13:35:49.109Z,95243.74
2019-05-17T13:38:21.080Z,95236.69
2019-05-17T13:40:52.117Z,95239.72
2019-05-17T13:43:22.961Z,95238.90
2019-05-17T13:45:53.537Z,95239.31
2019-05-17T13:48:27.102Z,95233.75
2019-05-17T13:50:59.102Z,95226.09
2019-05-17T13:53:29.640Z,95217.93
2019-05-17T13:56:00.123Z,95215.87
2019-05-17T13:58:30.844Z,95213.23
2019-05-17T14:01:04.030Z,95214.63
2019-05-17T14:03:34.522Z,95217.77
2019-05-17T14:06:09.243Z,95210.38
2019-05-17T14:08:43.111Z,95216.14
2019-05-17T14:11:28.347Z,95210.49
2019-05-17T14:14:03.482Z,95217.14
2019-05-17T14:17:03.142Z,95215.99
2019-05-17T14:19:36.207Z,95206.06
2019-05-17T14:22:08.926Z,95208.80
2019-05-17T14:24:42.370Z,95215.86
2019-05-17T14:27:13.828Z,95212.25
2019-05-17T14:29:44.234Z,95211.70
2019-05-17T14:32:20.910Z,95210.27
2019-05-17T14:34:51.352Z,95209.05
2019-05-17T14:37:22.100Z,95205.23
2019-05-17T14:39:52.636Z,95197.27
2019-05-17T14:42:23.573Z,95196.47
2019-05-17T14:45:00.271Z,95195.78
2019-05-17T14:47:33.865Z,95191.41
2019-05-17T14:50:04.915Z,95199.52
2019-05-17T14:52:35.899Z,95199.53
2019-05-17T14:55:08.091Z,95209.50
2019-05-17T14:57:38.475Z,95209.11
2019-05-17T15:00:10.040Z,95204.44
2019-05-17T15:02:50.671Z,95207.81
2019-05-17T15:05:34.445Z,95201.42
2019-05-17T15:08:08.246Z,95198.31
2019-05-17T15:10:44.215Z,95192.86
2019-05-17T15:13:16.178Z,95184.62
2019-05-17T15:15:59.029Z,95184.04
2019-05-17T15:18:29.644Z,95186.08
2019-05-17T15:21:00.150Z,95184.14
2019-05-17T15:23:32.637Z,95187.65
2019-05-17T15:26:03.866Z,95187.41
2019-05-17T15:28:48.229Z,95188.27
2019-05-17T15:31:18.735Z,95188.57
2019-05-17T15:33:49.165Z,95182.83
2019-05-17T15:36:19.764Z,95190.20
2019-05-17T15:38:52.247Z,95184.81
2019-05-17T15:41:27.094Z,95183.64
2019-05-17T15:44:00.142Z,95188.88
2019-05-17T15:46:32.322Z,95182.96
2019-05-17T15:49:02.753Z,95174.33
2019-05-17T15:51:33.147Z,95170.36
2019-05-17T15:54:09.147Z,95169.52
2019-05-17T15:56:40.090Z,95172.94
2019-05-17T15:59:13.442Z,95173.63
2019-05-17T16:04:37.113Z,95166.79
2019-05-17T16:07:14.490Z,95169.95
2019-05-17T16:09:45.202Z,95169.32
2019-05-17T16:12:36.518Z,95161.12
2019-05-17T16:15:06.826Z,95164.29
2019-05-17T16:17:37.665Z,95160.75
2019-05-17T16:20:16.333Z,95159.82
2019-05-17T16:22:43.030Z,95158.48
2019-05-17T16:25:15.242Z,95166.44
2019-05-17T16:27:45.972Z,95170.21
2019-05-17T16:30:21.187Z,95171.33
2019-05-17T16:32:51.572Z,95179.11
2019-05-17T16:35:22.021Z,95174.93
2019-05-17T16:37:52.523Z,95171.66
2019-05-17T16:40:25.318Z,95167.48
2019-05-17T16:43:16.764Z,95170.08
2019-05-17T16:45:35.338Z,95168.77
2019-05-17T16:48:13.486Z,95169.69
2019-05-17T16:50:47.008Z,95165.82
2019-05-17T16:53:22.100Z,95168.01
2019-05-17T16:55:54.459Z,95162.67
2019-05-17T16:58:27.478Z,95159.13
2019-05-17T17:01:08.421Z,95162.80
2019-05-17T17:03:44.309Z,95163.25
2019-05-17T17:06:21.987Z,95159.75
2019-05-17T17:08:55.638Z,95152.05
2019-05-17T17:11:39.105Z,95150.84
2019-05-17T17:14:10.264Z,95163.41
2019-05-17T17:16:41.055Z,95166.70
2019-05-17T17:19:12.015Z,95168.23
2019-05-17T17:21:44.932Z,95165.15
2019-05-17T17:24:15.389Z,95166.44
2019-05-17T17:26:50.187Z,95165.92
2019-05-17T17:29:27.098Z,95168.29
2019-05-17T17:32:00.893Z,95166.19
2019-05-17T17:34:35.095Z,95169.28
2019-05-17T17:37:05.517Z,95170.47
2019-05-17T17:39:41.454Z,95172.09
2019-05-17T17:42:12.280Z,95172.92
2019-05-17T17:44:43.241Z,95171.39
2019-05-17T17:47:17.279Z,95166.52
2019-05-17T17:49:48.155Z,95168.91
2019-05-17T17:52:20.809Z,95168.08
2019-05-17T17:54:53.123Z,95158.95
2019-05-17T17:57:30.897Z,95166.18
2019-05-17T18:00:05.734Z,95158.66
2019-05-17T18:02:47.100Z,95159.71
2019-05-17T18:05:27.355Z,95172.44
2019-05-17T18:07:59.402Z,95168.05
2019-05-17T18:10:46.543Z,95159.58
2019-05-17T18:13:44.469Z,95167.08
2019-05-17T18:16:15.197Z,95172.72
2019-05-17T18:19:01.363Z,95173.41
2019-05-17T18:21:43.618Z,95166.69
2019-05-17T18:24:42.217Z,95171.89
2019-05-17T18:27:20.323Z,95172.28
2019-05-17T18:29:51.348Z,95177.96
2019-05-17T18:32:22.005Z,95175.94
2019-05-17T18:34:53.304Z,95179.30
2019-05-17T18:37:23.736Z,95173.37
2019-05-17T18:39:54.163Z,95178.22
2019-05-17T18:42:26.313Z,95176.89
2019-05-17T18:45:05.886Z,95180.81
2019-05-17T18:47:38.913Z,95179.47
2019-05-17T18:50:16.921Z,95178.70
2019-05-17T18:53:23.642Z,95183.69
2019-05-17T18:55:57.289Z,95184.94
2019-05-17T18:59:01.750Z,95183.37
2019-05-17T19:02:10.516Z,95185.42
2019-05-17T19:04:50.124Z,95184.30
2019-05-17T19:07:31.101Z,95185.58
2019-05-17T19:10:17.276Z,95186.66
2019-05-17T19:12:54.102Z,95187.52
2019-05-17T19:15:26.227Z,95189.06
2019-05-17T19:18:03.581Z,95187.55
2019-05-17T19:20:33.811Z,95189.83
2019-05-17T19:23:04.600Z,95184.30
2019-05-17T19:25:37.740Z,95189.02
2019-05-17T19:28:08.310Z,95187.09
2019-05-17T19:30:39.096Z,95186.98
2019-05-17T19:33:21.592Z,95179.41
2019-05-17T19:35:57.308Z,95179.02
2019-05-17T19:38:28.188Z,95188.02
2019-05-17T19:41:23.193Z,95187.58
2019-05-17T19:43:57.248Z,95186.05
2019-05-17T19:46:46.722Z,95188.80
2019-05-17T19:49:20.073Z,95195.30
2019-05-17T19:51:50.620Z,95188.70
2019-05-17T19:54:34.501Z,95187.97
2019-05-17T19:57:08.085Z,95190.44
2019-05-17T19:59:39.174Z,95191.58
2019-05-17T20:02:14.574Z,95186.84
2019-05-17T20:04:45.296Z,95182.59
2019-05-17T20:07:24.326Z,95184.53
2019-05-17T20:09:59.944Z,95178.49
2019-05-17T20:12:31.923Z,95183.58
2019-05-17T20:15:17.326Z,95182.56
2019-05-17T20:17:44.121Z,95182.09
2019-05-17T20:20:15.232Z,95183.47
2019-05-17T20:22:56.204Z,95184.53
2019-05-17T20:25:34.534Z,95184.31
2019-05-17T20:28:10.709Z,95187.25
2019-05-17T20:30:44.105Z,95186.98
2019-05-17T20:33:14.815Z,95189.69
2019-05-17T20:35:53.140Z,95183.02
2019-05-17T20:38:24.696Z,95190.79
2019-05-17T20:40:56.960Z,95191.86
2019-05-17T20:43:27.653Z,95188.45
2019-05-17T20:45:58.151Z,95192.19
2019-05-17T20:48:32.117Z,95193.55
2019-05-17T20:51:08.155Z,95186.05
2019-05-17T20:53:41.249Z,95184.72
2019-05-17T20:56:11.902Z,95180.20
2019-05-17T20:58:42.389Z,95179.70
2019-05-17T21:01:16.086Z,95180.52
2019-05-17T21:03:48.263Z,95182.66
2019-05-17T21:06:21.295Z,95175.74
2019-05-17T21:09:02.104Z,95176.80
2019-05-17T21:11:34.168Z,95170.96
2019-05-17T21:14:04.892Z,95169.64
2019-05-17T21:16:39.654Z,95181.88
2019-05-17T21:19:15.100Z,95174.43
2019-05-17T21:21:49.084Z,95174.16
2019-05-17T21:24:19.832Z,95176.30
2019-05-17T21:26:53.170Z,95177.89
2019-05-17T21:29:49.083Z,95175.49
2019-05-17T21:32:37.474Z,95168.04
2019-05-17T21:35:06.005Z,95176.27
2019-05-17T21:37:38.070Z,95178.42
2019-05-17T21:40:10.812Z,95174.41
2019-05-17T21:42:46.126Z,95170.41
2019-05-17T21:45:17.242Z,95179.72
2019-05-17T21:47:48.189Z,95172.27
2019-05-17T21:50:18.660Z,95174.67
2019-05-17T21:52:52.393Z,95172.25
2019-05-17T21:55:24.437Z,95175.45
2019-05-17T21:57:58.313Z,95174.89
2019-05-17T22:01:06.121Z,95164.53
2019-05-17T22:03:39.386Z,95161.56
2019-05-17T22:06:11.091Z,95170.31
2019-05-17T22:08:44.094Z,95169.77
2019-05-17T22:11:15.078Z,95170.84
2019-05-17T22:13:47.956Z,95163.41
2019-05-17T22:16:20.262Z,95159.19
2019-05-17T22:18:51.350Z,95165.05
2019-05-17T22:21:21.742Z,95158.66
2019-05-17T22:23:54.734Z,95159.72
2019-05-17T22:26:25.302Z,95163.14
2019-05-17T22:29:14.561Z,95161.80
2019-05-17T22:31:51.333Z,95168.44
2019-05-17T22:34:24.874Z,95160.73
2019-05-17T22:36:55.325Z,95166.29
2019-05-17T22:39:26.099Z,95156.17
2019-05-17T22:41:58.076Z,95157.77
2019-05-17T22:44:28.485Z,95160.97
2019-05-17T22:46:58.911Z,95155.64
2019-05-17T22:49:31.266Z,95158.83
2019-05-17T22:52:04.848Z,95151.11
2019-05-17T22:54:35.246Z,95154.84
2019-05-17T22:57:12.629Z,95150.30
2019-05-17T22:59:46.103Z,95147.94
2019-05-17T23:02:16.789Z,95142.08
2019-05-17T23:04:47.228Z,95143.37
2019-05-17T23:07:19.242Z,95145.50
2019-05-17T23:09:54.230Z,95135.43
2019-05-17T23:12:26.252Z,95128.24
2019-05-17T23:14:59.150Z,95126.93
2019-05-17T23:17:34.645Z,95130.17
2019-05-17T23:20:08.293Z,95120.88
2019-05-17T23:22:40.186Z,95118.72
2019-05-17T23:25:13.301Z,95115.27
2019-05-17T23:27:50.321Z,95118.48
2019-05-17T23:30:22.964Z,95112.37
2019-05-17T23:32:55.096Z,95111.85
2019-05-17T23:35:25.699Z,95114.73
2019-05-17T23:37:56.824Z,95112.58
2019-05-17T23:40:28.563Z,95113.63
2019-05-17T23:42:59.096Z,95114.42
2019-05-17T23:45:29.529Z,95111.52
2019-05-17T23:48:00.017Z,95118.91
2019-05-17T23:50:31.564Z,95109.02
2019-05-17T23:53:09.911Z,95113.57
2019-05-17T23:55:40.363Z,95114.08
2019-05-17T23:58:11.270Z,95111.67
